sensor_id;sensor_type;location;lat;lon;timestamp;P1;durP1;ratioP1;P2;durP2;ratioP2
80187;SDS011;73735;52.134;5.436;2024-03-17T00:02:10;11.35;;;6.53;;
80187;SDS011;73735;52.134;5.436;2024-03-17T00:04:36;11.70;;;5.90;;
80187;SDS011;73735;52.134;5.436;2024-03-17T00:07:01;12.68;;;6.30;;
80187;SDS011;73735;52.134;5.436;2024-03-17T00:09:27;17.80;;;6.07;;
80187;SDS011;73735;52.134;5.436;2024-03-17T00:11:53;12.77;;;5.72;;
80187;SDS011;73735;52.134;5.436;2024-03-17T00:14:18;13.90;;;5.32;;
80187;SDS011;73735;52.134;5.436;2024-03-17T00:16:44;13.90;;;4.68;;
80187;SDS011;73735;52.134;5.436;2024-03-17T00:19:09;11.57;;;5.45;;
80187;SDS011;73735;52.134;5.436;2024-03-17T00:21:35;11.32;;;5.25;;
80187;SDS011;73735;52.134;5.436;2024-03-17T00:24:01;13.23;;;5.30;;
80187;SDS011;73735;52.134;5.436;2024-03-17T00:26:27;12.35;;;5.38;;
80187;SDS011;73735;52.134;5.436;2024-03-17T00:28:54;13.02;;;5.28;;
80187;SDS011;73735;52.134;5.436;2024-03-17T00:31:20;11.07;;;5.30;;
80187;SDS011;73735;52.134;5.436;2024-03-17T00:33:46;11.38;;;5.05;;
80187;SDS011;73735;52.134;5.436;2024-03-17T00:36:11;10.57;;;4.85;;
80187;SDS011;73735;52.134;5.436;2024-03-17T00:38:37;11.43;;;5.28;;
80187;SDS011;73735;52.134;5.436;2024-03-17T00:41:03;10.55;;;5.35;;
80187;SDS011;73735;52.134;5.436;2024-03-17T00:43:29;10.65;;;4.90;;
80187;SDS011;73735;52.134;5.436;2024-03-17T00:45:55;12.73;;;5.38;;
80187;SDS011;73735;52.134;5.436;2024-03-17T00:48:20;10.38;;;4.70;;
80187;SDS011;73735;52.134;5.436;2024-03-17T00:50:46;10.98;;;5.28;;
80187;SDS011;73735;52.134;5.436;2024-03-17T00:53:11;9.57;;;4.93;;
80187;SDS011;73735;52.134;5.436;2024-03-17T00:55:37;10.40;;;5.10;;
80187;SDS011;73735;52.134;5.436;2024-03-17T00:58:03;10.10;;;4.85;;
80187;SDS011;73735;52.134;5.436;2024-03-17T01:00:29;12.70;;;4.97;;
80187;SDS011;73735;52.134;5.436;2024-03-17T01:02:54;10.52;;;4.30;;
80187;SDS011;73735;52.134;5.436;2024-03-17T01:05:20;9.40;;;4.93;;
80187;SDS011;73735;52.134;5.436;2024-03-17T01:07:45;9.73;;;4.20;;
80187;SDS011;73735;52.134;5.436;2024-03-17T01:10:13;10.57;;;4.50;;
80187;SDS011;73735;52.134;5.436;2024-03-17T01:12:38;9.07;;;4.68;;
80187;SDS011;73735;52.134;5.436;2024-03-17T01:15:07;9.85;;;4.90;;
80187;SDS011;73735;52.134;5.436;2024-03-17T01:17:33;11.90;;;4.90;;
80187;SDS011;73735;52.134;5.436;2024-03-17T01:19:59;10.45;;;4.75;;
80187;SDS011;73735;52.134;5.436;2024-03-17T01:22:25;10.35;;;4.70;;
80187;SDS011;73735;52.134;5.436;2024-03-17T01:24:50;11.85;;;5.25;;
80187;SDS011;73735;52.134;5.436;2024-03-17T01:27:16;9.77;;;4.80;;
80187;SDS011;73735;52.134;5.436;2024-03-17T01:29:42;9.40;;;5.10;;
80187;SDS011;73735;52.134;5.436;2024-03-17T01:32:08;10.05;;;5.03;;
80187;SDS011;73735;52.134;5.436;2024-03-17T01:34:36;10.80;;;5.25;;
80187;SDS011;73735;52.134;5.436;2024-03-17T01:37:02;10.32;;;4.68;;
80187;SDS011;73735;52.134;5.436;2024-03-17T01:39:29;11.13;;;4.72;;
80187;SDS011;73735;52.134;5.436;2024-03-17T01:41:55;11.05;;;5.28;;
80187;SDS011;73735;52.134;5.436;2024-03-17T01:44:24;11.48;;;4.78;;
80187;SDS011;73735;52.134;5.436;2024-03-17T01:46:52;9.52;;;5.57;;
80187;SDS011;73735;52.134;5.436;2024-03-17T01:49:22;13.32;;;5.97;;
80187;SDS011;73735;52.134;5.436;2024-03-17T01:51:49;14.65;;;6.03;;
80187;SDS011;73735;52.134;5.436;2024-03-17T01:54:15;11.38;;;5.60;;
80187;SDS011;73735;52.134;5.436;2024-03-17T01:56:42;13.32;;;5.50;;
80187;SDS011;73735;52.134;5.436;2024-03-17T01:59:09;12.80;;;5.82;;
80187;SDS011;73735;52.134;5.436;2024-03-17T02:01:35;13.95;;;5.90;;
80187;SDS011;73735;52.134;5.436;2024-03-17T02:04:01;10.73;;;5.60;;
80187;SDS011;73735;52.134;5.436;2024-03-17T02:06:27;11.48;;;5.65;;
80187;SDS011;73735;52.134;5.436;2024-03-17T02:08:53;12.23;;;5.40;;
80187;SDS011;73735;52.134;5.436;2024-03-17T02:11:32;12.98;;;6.30;;
80187;SDS011;73735;52.134;5.436;2024-03-17T02:13:59;14.85;;;5.57;;
80187;SDS011;73735;52.134;5.436;2024-03-17T02:16:26;14.10;;;6.13;;
80187;SDS011;73735;52.134;5.436;2024-03-17T02:18:55;12.48;;;5.93;;
80187;SDS011;73735;52.134;5.436;2024-03-17T02:21:21;14.55;;;5.75;;
80187;SDS011;73735;52.134;5.436;2024-03-17T02:23:48;13.73;;;5.85;;
80187;SDS011;73735;52.134;5.436;2024-03-17T02:26:14;15.88;;;6.28;;
80187;SDS011;73735;52.134;5.436;2024-03-17T02:28:43;12.07;;;5.50;;
80187;SDS011;73735;52.134;5.436;2024-03-17T02:31:10;13.80;;;5.65;;
80187;SDS011;73735;52.134;5.436;2024-03-17T02:36:04;11.82;;;6.13;;
80187;SDS011;73735;52.134;5.436;2024-03-17T02:38:32;13.13;;;5.38;;
80187;SDS011;73735;52.134;5.436;2024-03-17T02:41:17;9.60;;;5.72;;
80187;SDS011;73735;52.134;5.436;2024-03-17T02:43:42;10.57;;;5.88;;
80187;SDS011;73735;52.134;5.436;2024-03-17T02:46:10;9.77;;;5.00;;
80187;SDS011;73735;52.134;5.436;2024-03-17T02:48:38;12.55;;;6.20;;
80187;SDS011;73735;52.134;5.436;2024-03-17T02:51:12;16.20;;;6.07;;
80187;SDS011;73735;52.134;5.436;2024-03-17T02:53:41;12.38;;;6.25;;
80187;SDS011;73735;52.134;5.436;2024-03-17T02:56:08;13.52;;;5.97;;
80187;SDS011;73735;52.134;5.436;2024-03-17T02:58:37;10.27;;;5.90;;
80187;SDS011;73735;52.134;5.436;2024-03-17T03:01:04;12.35;;;5.85;;
80187;SDS011;73735;52.134;5.436;2024-03-17T03:03:31;11.10;;;5.68;;
80187;SDS011;73735;52.134;5.436;2024-03-17T03:05:57;10.70;;;5.63;;
80187;SDS011;73735;52.134;5.436;2024-03-17T03:08:23;11.85;;;6.00;;
80187;SDS011;73735;52.134;5.436;2024-03-17T03:10:49;9.48;;;5.18;;
80187;SDS011;73735;52.134;5.436;2024-03-17T03:13:15;9.98;;;5.55;;
80187;SDS011;73735;52.134;5.436;2024-03-17T03:15:41;10.60;;;5.68;;
80187;SDS011;73735;52.134;5.436;2024-03-17T03:18:07;11.02;;;5.45;;
80187;SDS011;73735;52.134;5.436;2024-03-17T03:20:33;10.75;;;5.97;;
80187;SDS011;73735;52.134;5.436;2024-03-17T03:22:59;11.20;;;5.60;;
80187;SDS011;73735;52.134;5.436;2024-03-17T03:25:25;11.90;;;5.50;;
80187;SDS011;73735;52.134;5.436;2024-03-17T03:27:52;13.20;;;6.05;;
80187;SDS011;73735;52.134;5.436;2024-03-17T03:30:18;10.45;;;4.95;;
80187;SDS011;73735;52.134;5.436;2024-03-17T03:32:46;10.02;;;4.95;;
80187;SDS011;73735;52.134;5.436;2024-03-17T03:35:13;13.02;;;5.15;;
80187;SDS011;73735;52.134;5.436;2024-03-17T03:37:40;9.88;;;5.03;;
80187;SDS011;73735;52.134;5.436;2024-03-17T03:40:06;12.30;;;5.18;;
80187;SDS011;73735;52.134;5.436;2024-03-17T03:42:45;10.60;;;4.93;;
80187;SDS011;73735;52.134;5.436;2024-03-17T03:45:11;11.60;;;5.13;;
80187;SDS011;73735;52.134;5.436;2024-03-17T03:47:42;10.75;;;5.18;;
80187;SDS011;73735;52.134;5.436;2024-03-17T03:50:12;12.45;;;5.60;;
80187;SDS011;73735;52.134;5.436;2024-03-17T03:52:40;10.77;;;5.03;;
80187;SDS011;73735;52.134;5.436;2024-03-17T03:55:07;10.63;;;5.07;;
80187;SDS011;73735;52.134;5.436;2024-03-17T03:57:36;9.98;;;5.05;;
80187;SDS011;73735;52.134;5.436;2024-03-17T04:00:02;12.23;;;4.95;;
80187;SDS011;73735;52.134;5.436;2024-03-17T04:02:38;9.60;;;4.55;;
80187;SDS011;73735;52.134;5.436;2024-03-17T04:05:04;10.15;;;5.15;;
80187;SDS011;73735;52.134;5.436;2024-03-17T04:07:30;10.23;;;5.10;;
80187;SDS011;73735;52.134;5.436;2024-03-17T04:09:55;10.38;;;5.22;;
80187;SDS011;73735;52.134;5.436;2024-03-17T04:12:21;10.23;;;4.85;;
80187;SDS011;73735;52.134;5.436;2024-03-17T04:14:47;10.70;;;4.55;;
80187;SDS011;73735;52.134;5.436;2024-03-17T04:17:17;11.88;;;5.10;;
80187;SDS011;73735;52.134;5.436;2024-03-17T04:19:44;12.13;;;5.60;;
80187;SDS011;73735;52.134;5.436;2024-03-17T04:22:11;9.45;;;5.03;;
80187;SDS011;73735;52.134;5.436;2024-03-17T04:24:36;11.32;;;5.50;;
80187;SDS011;73735;52.134;5.436;2024-03-17T04:27:02;10.32;;;5.28;;
80187;SDS011;73735;52.134;5.436;2024-03-17T04:31:55;10.52;;;4.53;;
80187;SDS011;73735;52.134;5.436;2024-03-17T04:34:20;10.32;;;5.15;;
80187;SDS011;73735;52.134;5.436;2024-03-17T04:36:46;9.75;;;4.57;;
80187;SDS011;73735;52.134;5.436;2024-03-17T04:39:12;11.18;;;5.15;;
80187;SDS011;73735;52.134;5.436;2024-03-17T04:41:37;11.27;;;5.35;;
80187;SDS011;73735;52.134;5.436;2024-03-17T04:44:06;10.20;;;4.63;;
80187;SDS011;73735;52.134;5.436;2024-03-17T04:46:32;10.48;;;5.18;;
80187;SDS011;73735;52.134;5.436;2024-03-17T04:48:58;11.32;;;5.40;;
80187;SDS011;73735;52.134;5.436;2024-03-17T04:51:23;13.40;;;5.97;;
80187;SDS011;73735;52.134;5.436;2024-03-17T04:53:49;10.45;;;5.90;;
80187;SDS011;73735;52.134;5.436;2024-03-17T04:56:14;11.40;;;5.40;;
80187;SDS011;73735;52.134;5.436;2024-03-17T04:58:40;11.57;;;5.13;;
80187;SDS011;73735;52.134;5.436;2024-03-17T05:03:34;11.57;;;5.22;;
80187;SDS011;73735;52.134;5.436;2024-03-17T05:06:03;11.98;;;5.75;;
80187;SDS011;73735;52.134;5.436;2024-03-17T05:08:30;13.48;;;5.78;;
80187;SDS011;73735;52.134;5.436;2024-03-17T05:10:57;11.00;;;5.38;;
80187;SDS011;73735;52.134;5.436;2024-03-17T05:13:30;9.85;;;5.55;;
80187;SDS011;73735;52.134;5.436;2024-03-17T05:15:56;12.88;;;6.07;;
80187;SDS011;73735;52.134;5.436;2024-03-17T05:18:23;12.85;;;5.88;;
80187;SDS011;73735;52.134;5.436;2024-03-17T05:20:57;12.85;;;6.13;;
80187;SDS011;73735;52.134;5.436;2024-03-17T05:23:30;11.85;;;6.13;;
80187;SDS011;73735;52.134;5.436;2024-03-17T05:25:56;12.55;;;6.53;;
80187;SDS011;73735;52.134;5.436;2024-03-17T05:28:23;11.52;;;5.95;;
80187;SDS011;73735;52.134;5.436;2024-03-17T05:30:49;12.80;;;6.30;;
80187;SDS011;73735;52.134;5.436;2024-03-17T05:33:19;12.88;;;6.32;;
80187;SDS011;73735;52.134;5.436;2024-03-17T05:35:53;10.68;;;5.78;;
80187;SDS011;73735;52.134;5.436;2024-03-17T05:38:20;11.60;;;5.70;;
80187;SDS011;73735;52.134;5.436;2024-03-17T05:40:56;12.65;;;6.05;;
80187;SDS011;73735;52.134;5.436;2024-03-17T05:43:27;11.43;;;5.90;;
80187;SDS011;73735;52.134;5.436;2024-03-17T05:45:58;12.30;;;6.30;;
80187;SDS011;73735;52.134;5.436;2024-03-17T05:48:26;12.77;;;6.38;;
80187;SDS011;73735;52.134;5.436;2024-03-17T05:50:52;15.18;;;6.97;;
80187;SDS011;73735;52.134;5.436;2024-03-17T05:53:18;11.20;;;6.00;;
80187;SDS011;73735;52.134;5.436;2024-03-17T05:55:45;11.48;;;6.40;;
80187;SDS011;73735;52.134;5.436;2024-03-17T05:58:11;12.13;;;5.82;;
80187;SDS011;73735;52.134;5.436;2024-03-17T06:00:37;11.65;;;6.25;;
80187;SDS011;73735;52.134;5.436;2024-03-17T06:03:04;11.07;;;5.82;;
80187;SDS011;73735;52.134;5.436;2024-03-17T06:05:34;13.90;;;6.47;;
80187;SDS011;73735;52.134;5.436;2024-03-17T06:08:01;11.63;;;6.43;;
80187;SDS011;73735;52.134;5.436;2024-03-17T06:12:57;12.18;;;5.78;;
80187;SDS011;73735;52.134;5.436;2024-03-17T06:15:23;9.98;;;5.60;;
80187;SDS011;73735;52.134;5.436;2024-03-17T06:17:49;12.52;;;5.88;;
80187;SDS011;73735;52.134;5.436;2024-03-17T06:20:19;11.18;;;5.80;;
80187;SDS011;73735;52.134;5.436;2024-03-17T06:22:45;11.57;;;5.70;;
80187;SDS011;73735;52.134;5.436;2024-03-17T06:25:11;12.57;;;6.13;;
80187;SDS011;73735;52.134;5.436;2024-03-17T06:27:37;13.40;;;6.22;;
80187;SDS011;73735;52.134;5.436;2024-03-17T06:30:03;13.23;;;5.82;;
80187;SDS011;73735;52.134;5.436;2024-03-17T06:32:30;12.93;;;6.10;;
80187;SDS011;73735;52.134;5.436;2024-03-17T06:35:01;11.57;;;6.15;;
80187;SDS011;73735;52.134;5.436;2024-03-17T06:37:27;11.75;;;6.30;;
80187;SDS011;73735;52.134;5.436;2024-03-17T06:39:52;12.27;;;5.72;;
80187;SDS011;73735;52.134;5.436;2024-03-17T06:42:18;13.88;;;6.97;;
80187;SDS011;73735;52.134;5.436;2024-03-17T06:44:44;10.27;;;5.93;;
80187;SDS011;73735;52.134;5.436;2024-03-17T06:47:10;12.20;;;6.10;;
80187;SDS011;73735;52.134;5.436;2024-03-17T06:49:35;13.20;;;5.95;;
80187;SDS011;73735;52.134;5.436;2024-03-17T06:52:01;11.25;;;5.65;;
80187;SDS011;73735;52.134;5.436;2024-03-17T06:54:27;10.57;;;5.20;;
80187;SDS011;73735;52.134;5.436;2024-03-17T06:56:52;11.10;;;6.22;;
80187;SDS011;73735;52.134;5.436;2024-03-17T06:59:18;12.50;;;5.88;;
80187;SDS011;73735;52.134;5.436;2024-03-17T07:01:46;12.52;;;5.97;;
80187;SDS011;73735;52.134;5.436;2024-03-17T07:04:12;11.27;;;5.65;;
80187;SDS011;73735;52.134;5.436;2024-03-17T07:06:38;12.43;;;5.90;;
80187;SDS011;73735;52.134;5.436;2024-03-17T07:09:04;11.93;;;6.13;;
80187;SDS011;73735;52.134;5.436;2024-03-17T07:11:29;11.98;;;6.40;;
80187;SDS011;73735;52.134;5.436;2024-03-17T07:13:55;11.73;;;5.85;;
80187;SDS011;73735;52.134;5.436;2024-03-17T07:16:20;14.30;;;6.18;;
80187;SDS011;73735;52.134;5.436;2024-03-17T07:18:51;13.90;;;6.43;;
80187;SDS011;73735;52.134;5.436;2024-03-17T07:21:18;10.77;;;5.90;;
80187;SDS011;73735;52.134;5.436;2024-03-17T07:23:44;11.57;;;6.20;;
80187;SDS011;73735;52.134;5.436;2024-03-17T07:26:10;13.65;;;6.38;;
80187;SDS011;73735;52.134;5.436;2024-03-17T07:28:35;11.55;;;5.95;;
80187;SDS011;73735;52.134;5.436;2024-03-17T07:31:05;12.55;;;6.40;;
80187;SDS011;73735;52.134;5.436;2024-03-17T07:33:33;11.63;;;6.07;;
80187;SDS011;73735;52.134;5.436;2024-03-17T07:35:59;10.88;;;5.50;;
80187;SDS011;73735;52.134;5.436;2024-03-17T07:38:29;14.52;;;6.63;;
80187;SDS011;73735;52.134;5.436;2024-03-17T07:40:56;11.18;;;5.47;;
80187;SDS011;73735;52.134;5.436;2024-03-17T07:43:23;12.20;;;5.95;;
80187;SDS011;73735;52.134;5.436;2024-03-17T07:48:35;10.48;;;5.72;;
80187;SDS011;73735;52.134;5.436;2024-03-17T07:53:46;11.60;;;5.80;;
80187;SDS011;73735;52.134;5.436;2024-03-17T07:56:17;11.93;;;5.40;;
80187;SDS011;73735;52.134;5.436;2024-03-17T07:58:44;10.00;;;5.43;;
80187;SDS011;73735;52.134;5.436;2024-03-17T08:01:11;10.68;;;5.85;;
80187;SDS011;73735;52.134;5.436;2024-03-17T08:03:39;9.88;;;5.55;;
80187;SDS011;73735;52.134;5.436;2024-03-17T08:06:06;9.73;;;5.32;;
80187;SDS011;73735;52.134;5.436;2024-03-17T08:08:33;11.95;;;5.63;;
80187;SDS011;73735;52.134;5.436;2024-03-17T08:10:59;11.48;;;5.88;;
80187;SDS011;73735;52.134;5.436;2024-03-17T08:13:28;11.48;;;5.57;;
80187;SDS011;73735;52.134;5.436;2024-03-17T08:16:05;11.70;;;5.55;;
80187;SDS011;73735;52.134;5.436;2024-03-17T08:18:32;9.95;;;5.60;;
80187;SDS011;73735;52.134;5.436;2024-03-17T08:20:59;14.80;;;5.82;;
80187;SDS011;73735;52.134;5.436;2024-03-17T08:23:26;12.00;;;6.20;;
80187;SDS011;73735;52.134;5.436;2024-03-17T08:25:56;12.13;;;5.85;;
80187;SDS011;73735;52.134;5.436;2024-03-17T08:28:23;10.35;;;5.72;;
80187;SDS011;73735;52.134;5.436;2024-03-17T08:30:59;12.55;;;5.90;;
80187;SDS011;73735;52.134;5.436;2024-03-17T08:33:26;11.13;;;5.57;;
80187;SDS011;73735;52.134;5.436;2024-03-17T08:38:21;11.13;;;5.60;;
80187;SDS011;73735;52.134;5.436;2024-03-17T08:40:49;12.07;;;5.60;;
80187;SDS011;73735;52.134;5.436;2024-03-17T08:43:18;10.23;;;5.15;;
80187;SDS011;73735;52.134;5.436;2024-03-17T08:45:45;9.98;;;5.53;;
80187;SDS011;73735;52.134;5.436;2024-03-17T08:48:19;12.30;;;5.43;;
80187;SDS011;73735;52.134;5.436;2024-03-17T08:50:49;11.77;;;5.63;;
80187;SDS011;73735;52.134;5.436;2024-03-17T08:53:22;10.63;;;5.18;;
80187;SDS011;73735;52.134;5.436;2024-03-17T08:55:48;10.88;;;5.30;;
80187;SDS011;73735;52.134;5.436;2024-03-17T08:58:14;11.35;;;5.97;;
80187;SDS011;73735;52.134;5.436;2024-03-17T09:00:40;9.65;;;5.57;;
80187;SDS011;73735;52.134;5.436;2024-03-17T09:03:06;11.05;;;5.25;;
80187;SDS011;73735;52.134;5.436;2024-03-17T09:05:39;10.50;;;5.75;;
80187;SDS011;73735;52.134;5.436;2024-03-17T09:08:06;10.85;;;5.63;;
80187;SDS011;73735;52.134;5.436;2024-03-17T09:10:43;11.32;;;5.32;;
80187;SDS011;73735;52.134;5.436;2024-03-17T09:13:12;12.85;;;5.80;;
80187;SDS011;73735;52.134;5.436;2024-03-17T09:15:40;12.05;;;5.93;;
80187;SDS011;73735;52.134;5.436;2024-03-17T09:18:05;11.73;;;5.63;;
80187;SDS011;73735;52.134;5.436;2024-03-17T09:20:31;13.05;;;5.93;;
80187;SDS011;73735;52.134;5.436;2024-03-17T09:22:57;11.10;;;5.63;;
80187;SDS011;73735;52.134;5.436;2024-03-17T09:25:22;13.20;;;5.63;;
80187;SDS011;73735;52.134;5.436;2024-03-17T09:27:48;10.43;;;5.38;;
80187;SDS011;73735;52.134;5.436;2024-03-17T09:30:14;9.85;;;4.70;;
80187;SDS011;73735;52.134;5.436;2024-03-17T09:32:40;9.52;;;4.80;;
80187;SDS011;73735;52.134;5.436;2024-03-17T09:35:06;11.15;;;5.40;;
80187;SDS011;73735;52.134;5.436;2024-03-17T09:37:32;11.07;;;5.43;;
80187;SDS011;73735;52.134;5.436;2024-03-17T09:39:58;10.02;;;5.40;;
80187;SDS011;73735;52.134;5.436;2024-03-17T09:42:25;9.60;;;5.45;;
80187;SDS011;73735;52.134;5.436;2024-03-17T09:47:20;9.18;;;4.90;;
80187;SDS011;73735;52.134;5.436;2024-03-17T09:49:47;10.63;;;5.15;;
80187;SDS011;73735;52.134;5.436;2024-03-17T09:52:20;11.88;;;5.43;;
80187;SDS011;73735;52.134;5.436;2024-03-17T09:57:35;10.05;;;5.57;;
80187;SDS011;73735;52.134;5.436;2024-03-17T10:00:04;12.05;;;5.60;;
80187;SDS011;73735;52.134;5.436;2024-03-17T10:02:44;9.60;;;5.55;;
80187;SDS011;73735;52.134;5.436;2024-03-17T10:05:21;9.82;;;5.30;;
80187;SDS011;73735;52.134;5.436;2024-03-17T10:07:51;11.10;;;5.55;;
80187;SDS011;73735;52.134;5.436;2024-03-17T10:10:17;12.15;;;5.63;;
80187;SDS011;73735;52.134;5.436;2024-03-17T10:12:49;11.35;;;5.20;;
80187;SDS011;73735;52.134;5.436;2024-03-17T10:15:16;11.70;;;5.10;;
80187;SDS011;73735;52.134;5.436;2024-03-17T10:17:43;9.60;;;5.60;;
80187;SDS011;73735;52.134;5.436;2024-03-17T10:20:12;12.18;;;5.40;;
80187;SDS011;73735;52.134;5.436;2024-03-17T10:25:31;11.68;;;5.65;;
80187;SDS011;73735;52.134;5.436;2024-03-17T10:27:58;10.35;;;5.57;;
80187;SDS011;73735;52.134;5.436;2024-03-17T10:30:24;11.57;;;5.50;;
80187;SDS011;73735;52.134;5.436;2024-03-17T10:32:56;9.85;;;4.88;;
80187;SDS011;73735;52.134;5.436;2024-03-17T10:35:29;10.75;;;4.93;;
80187;SDS011;73735;52.134;5.436;2024-03-17T10:37:56;7.90;;;4.60;;
80187;SDS011;73735;52.134;5.436;2024-03-17T10:40:32;12.13;;;4.97;;
80187;SDS011;73735;52.134;5.436;2024-03-17T10:43:02;10.48;;;5.00;;
80187;SDS011;73735;52.134;5.436;2024-03-17T10:45:28;10.10;;;4.93;;
80187;SDS011;73735;52.134;5.436;2024-03-17T10:48:01;10.38;;;5.10;;
80187;SDS011;73735;52.134;5.436;2024-03-17T10:50:32;10.57;;;4.80;;
80187;SDS011;73735;52.134;5.436;2024-03-17T10:53:03;9.45;;;4.72;;
80187;SDS011;73735;52.134;5.436;2024-03-17T10:55:42;12.07;;;5.32;;
80187;SDS011;73735;52.134;5.436;2024-03-17T10:58:23;9.32;;;4.82;;
80187;SDS011;73735;52.134;5.436;2024-03-17T11:00:53;11.93;;;5.00;;
80187;SDS011;73735;52.134;5.436;2024-03-17T11:03:21;10.75;;;5.35;;
80187;SDS011;73735;52.134;5.436;2024-03-17T11:05:48;11.63;;;5.65;;
80187;SDS011;73735;52.134;5.436;2024-03-17T11:08:16;9.20;;;5.50;;
80187;SDS011;73735;52.134;5.436;2024-03-17T11:10:50;9.88;;;4.97;;
80187;SDS011;73735;52.134;5.436;2024-03-17T11:13:23;12.20;;;5.05;;
80187;SDS011;73735;52.134;5.436;2024-03-17T11:15:50;9.95;;;4.82;;
80187;SDS011;73735;52.134;5.436;2024-03-17T11:21:03;8.63;;;4.70;;
80187;SDS011;73735;52.134;5.436;2024-03-17T11:23:40;8.80;;;5.07;;
80187;SDS011;73735;52.134;5.436;2024-03-17T11:26:07;9.38;;;5.20;;
80187;SDS011;73735;52.134;5.436;2024-03-17T11:34:01;10.90;;;5.70;;
80187;SDS011;73735;52.134;5.436;2024-03-17T11:41:35;11.20;;;4.85;;
80187;SDS011;73735;52.134;5.436;2024-03-17T11:46:53;8.40;;;4.40;;
80187;SDS011;73735;52.134;5.436;2024-03-17T11:51:57;9.60;;;4.63;;
80187;SDS011;73735;52.134;5.436;2024-03-17T11:54:25;9.98;;;4.80;;
80187;SDS011;73735;52.134;5.436;2024-03-17T11:56:55;8.18;;;4.40;;
80187;SDS011;73735;52.134;5.436;2024-03-17T11:59:25;8.23;;;4.43;;
80187;SDS011;73735;52.134;5.436;2024-03-17T12:01:51;11.25;;;4.97;;
80187;SDS011;73735;52.134;5.436;2024-03-17T12:04:17;9.07;;;4.75;;
80187;SDS011;73735;52.134;5.436;2024-03-17T12:06:48;8.57;;;4.95;;
80187;SDS011;73735;52.134;5.436;2024-03-17T12:11:51;10.68;;;4.65;;
80187;SDS011;73735;52.134;5.436;2024-03-17T12:14:36;8.98;;;4.63;;
80187;SDS011;73735;52.134;5.436;2024-03-17T12:17:03;9.80;;;5.13;;
80187;SDS011;73735;52.134;5.436;2024-03-17T12:19:33;10.00;;;4.65;;
80187;SDS011;73735;52.134;5.436;2024-03-17T12:22:00;10.35;;;4.82;;
80187;SDS011;73735;52.134;5.436;2024-03-17T12:24:27;9.85;;;5.05;;
80187;SDS011;73735;52.134;5.436;2024-03-17T12:26:55;9.73;;;4.93;;
80187;SDS011;73735;52.134;5.436;2024-03-17T12:29:26;8.82;;;4.38;;
80187;SDS011;73735;52.134;5.436;2024-03-17T12:31:53;9.23;;;4.68;;
80187;SDS011;73735;52.134;5.436;2024-03-17T12:34:20;8.13;;;4.47;;
80187;SDS011;73735;52.134;5.436;2024-03-17T12:36:47;9.90;;;4.80;;
80187;SDS011;73735;52.134;5.436;2024-03-17T12:39:33;10.45;;;4.75;;
80187;SDS011;73735;52.134;5.436;2024-03-17T12:44:49;10.13;;;4.50;;
80187;SDS011;73735;52.134;5.436;2024-03-17T12:47:22;10.23;;;4.70;;
80187;SDS011;73735;52.134;5.436;2024-03-17T12:49:52;8.98;;;4.47;;
80187;SDS011;73735;52.134;5.436;2024-03-17T12:52:25;8.02;;;4.40;;
80187;SDS011;73735;52.134;5.436;2024-03-17T12:57:49;10.82;;;4.65;;
80187;SDS011;73735;52.134;5.436;2024-03-17T13:00:34;9.82;;;5.28;;
80187;SDS011;73735;52.134;5.436;2024-03-17T13:03:03;8.80;;;4.32;;
80187;SDS011;73735;52.134;5.436;2024-03-17T13:05:34;9.65;;;5.20;;
80187;SDS011;73735;52.134;5.436;2024-03-17T13:08:01;8.32;;;4.63;;
80187;SDS011;73735;52.134;5.436;2024-03-17T13:10:27;12.85;;;5.18;;
80187;SDS011;73735;52.134;5.436;2024-03-17T13:15:27;10.05;;;4.78;;
80187;SDS011;73735;52.134;5.436;2024-03-17T13:17:52;9.52;;;5.13;;
80187;SDS011;73735;52.134;5.436;2024-03-17T13:20:18;11.02;;;5.10;;
80187;SDS011;73735;52.134;5.436;2024-03-17T13:22:43;9.98;;;5.28;;
80187;SDS011;73735;52.134;5.436;2024-03-17T13:25:14;10.95;;;5.03;;
80187;SDS011;73735;52.134;5.436;2024-03-17T13:27:44;9.82;;;5.07;;
80187;SDS011;73735;52.134;5.436;2024-03-17T13:30:13;9.40;;;4.63;;
80187;SDS011;73735;52.134;5.436;2024-03-17T13:32:40;11.05;;;4.80;;
80187;SDS011;73735;52.134;5.436;2024-03-17T13:35:19;10.68;;;5.07;;
80187;SDS011;73735;52.134;5.436;2024-03-17T13:37:45;9.38;;;5.05;;
80187;SDS011;73735;52.134;5.436;2024-03-17T13:40:13;11.52;;;5.28;;
80187;SDS011;73735;52.134;5.436;2024-03-17T13:42:42;9.02;;;4.88;;
80187;SDS011;73735;52.134;5.436;2024-03-17T13:45:12;11.40;;;5.28;;
80187;SDS011;73735;52.134;5.436;2024-03-17T13:47:39;10.38;;;5.32;;
80187;SDS011;73735;52.134;5.436;2024-03-17T13:50:05;10.23;;;5.53;;
80187;SDS011;73735;52.134;5.436;2024-03-17T13:52:42;10.50;;;5.50;;
80187;SDS011;73735;52.134;5.436;2024-03-17T13:55:15;9.52;;;5.22;;
80187;SDS011;73735;52.134;5.436;2024-03-17T13:57:45;10.05;;;5.30;;
80187;SDS011;73735;52.134;5.436;2024-03-17T14:00:12;9.70;;;5.40;;
80187;SDS011;73735;52.134;5.436;2024-03-17T14:02:45;11.00;;;5.22;;
80187;SDS011;73735;52.134;5.436;2024-03-17T14:05:11;10.80;;;5.47;;
80187;SDS011;73735;52.134;5.436;2024-03-17T14:07:38;8.52;;;4.85;;
80187;SDS011;73735;52.134;5.436;2024-03-17T14:10:04;9.43;;;4.85;;
80187;SDS011;73735;52.134;5.436;2024-03-17T14:12:31;8.82;;;4.90;;
80187;SDS011;73735;52.134;5.436;2024-03-17T14:14:57;12.68;;;5.70;;
80187;SDS011;73735;52.134;5.436;2024-03-17T14:17:22;12.10;;;5.88;;
80187;SDS011;73735;52.134;5.436;2024-03-17T14:19:48;9.13;;;4.90;;
80187;SDS011;73735;52.134;5.436;2024-03-17T14:22:13;9.70;;;5.30;;
80187;SDS011;73735;52.134;5.436;2024-03-17T14:24:39;10.63;;;5.28;;
80187;SDS011;73735;52.134;5.436;2024-03-17T14:27:06;10.32;;;5.18;;
80187;SDS011;73735;52.134;5.436;2024-03-17T14:29:32;8.88;;;4.70;;
80187;SDS011;73735;52.134;5.436;2024-03-17T14:31:58;10.80;;;5.97;;
80187;SDS011;73735;52.134;5.436;2024-03-17T14:34:23;9.30;;;5.18;;
80187;SDS011;73735;52.134;5.436;2024-03-17T14:36:49;11.00;;;5.70;;
80187;SDS011;73735;52.134;5.436;2024-03-17T14:39:14;9.30;;;5.07;;
80187;SDS011;73735;52.134;5.436;2024-03-17T14:41:40;10.43;;;4.78;;
80187;SDS011;73735;52.134;5.436;2024-03-17T14:44:05;9.52;;;5.15;;
80187;SDS011;73735;52.134;5.436;2024-03-17T14:46:31;10.18;;;4.85;;
80187;SDS011;73735;52.134;5.436;2024-03-17T14:48:57;10.77;;;5.30;;
80187;SDS011;73735;52.134;5.436;2024-03-17T14:51:22;9.55;;;5.03;;
80187;SDS011;73735;52.134;5.436;2024-03-17T14:53:48;11.45;;;5.25;;
80187;SDS011;73735;52.134;5.436;2024-03-17T14:56:19;10.05;;;5.15;;
80187;SDS011;73735;52.134;5.436;2024-03-17T14:58:45;10.65;;;4.97;;
80187;SDS011;73735;52.134;5.436;2024-03-17T15:01:12;10.57;;;5.20;;
80187;SDS011;73735;52.134;5.436;2024-03-17T15:03:39;10.85;;;5.28;;
80187;SDS011;73735;52.134;5.436;2024-03-17T15:06:14;8.27;;;4.63;;
80187;SDS011;73735;52.134;5.436;2024-03-17T15:08:40;12.63;;;5.05;;
80187;SDS011;73735;52.134;5.436;2024-03-17T15:11:06;9.52;;;4.75;;
80187;SDS011;73735;52.134;5.436;2024-03-17T15:13:34;9.65;;;4.65;;
80187;SDS011;73735;52.134;5.436;2024-03-17T15:16:00;9.48;;;4.53;;
80187;SDS011;73735;52.134;5.436;2024-03-17T15:18:29;10.15;;;4.80;;
80187;SDS011;73735;52.134;5.436;2024-03-17T15:20:56;10.85;;;4.90;;
80187;SDS011;73735;52.134;5.436;2024-03-17T15:23:22;8.85;;;4.57;;
80187;SDS011;73735;52.134;5.436;2024-03-17T15:25:47;10.23;;;4.53;;
80187;SDS011;73735;52.134;5.436;2024-03-17T15:28:13;10.35;;;5.05;;
80187;SDS011;73735;52.134;5.436;2024-03-17T15:30:38;9.75;;;4.57;;
80187;SDS011;73735;52.134;5.436;2024-03-17T15:33:04;9.25;;;4.88;;
80187;SDS011;73735;52.134;5.436;2024-03-17T15:35:30;10.55;;;4.90;;
80187;SDS011;73735;52.134;5.436;2024-03-17T15:37:57;10.93;;;4.75;;